createdAt,value
2023-05-31T00:00:28.276Z,6.97
2023-05-31T00:05:35.465Z,6.73
2023-05-31T00:10:42.982Z,6.37
2023-05-31T00:15:49.762Z,5.80
2023-05-31T00:20:56.677Z,6.80
2023-05-31T00:26:03.813Z,7.20
2023-05-31T00:31:11.109Z,5.93
2023-05-31T00:36:18.132Z,5.23
2023-05-31T00:41:25.118Z,4.70
2023-05-31T00:46:40.845Z,5.27
2023-05-31T00:51:48.449Z,7.83
2023-05-31T00:56:56.430Z,6.00
2023-05-31T01:02:05.907Z,5.17
2023-05-31T01:07:13.301Z,6.13
2023-05-31T01:12:30.834Z,7.13
2023-05-31T01:17:46.674Z,5.73
2023-05-31T01:23:04.250Z,7.10
2023-05-31T01:28:13.146Z,7.40
2023-05-31T01:33:22.226Z,4.33
2023-05-31T01:38:29.224Z,6.17
2023-05-31T01:43:39.896Z,7.00
2023-05-31T01:48:49.150Z,5.77
2023-05-31T01:53:56.459Z,6.00
2023-05-31T01:59:04.418Z,5.57
2023-05-31T02:04:11.209Z,5.50
2023-05-31T02:09:18.374Z,7.30
2023-05-31T02:14:25.573Z,5.67
2023-05-31T02:19:33.063Z,5.17
2023-05-31T02:24:41.304Z,4.63
2023-05-31T02:29:52.093Z,6.17
2023-05-31T02:34:59.238Z,5.40
2023-05-31T02:40:10.713Z,6.40
2023-05-31T02:45:17.879Z,8.37
2023-05-31T02:50:24.741Z,6.00
2023-05-31T02:55:31.581Z,6.73
2023-05-31T03:00:48.227Z,5.13
2023-05-31T03:05:55.764Z,5.23
2023-05-31T03:11:03.183Z,5.40
2023-05-31T03:16:10.760Z,4.67
2023-05-31T03:21:17.958Z,5.40
2023-05-31T03:26:25.001Z,6.77
2023-05-31T03:31:32.006Z,6.80
2023-05-31T03:36:39.340Z,4.73
2023-05-31T03:41:46.384Z,5.87
2023-05-31T03:46:53.352Z,5.17
2023-05-31T03:52:00.823Z,6.13
2023-05-31T03:57:08.457Z,6.70
2023-05-31T04:02:15.542Z,6.00
2023-05-31T04:07:22.716Z,8.13
2023-05-31T04:12:29.637Z,5.57
2023-05-31T04:17:36.685Z,5.17
2023-05-31T04:22:43.733Z,7.13
2023-05-31T04:27:50.852Z,5.37
2023-05-31T04:32:58.507Z,6.73
2023-05-31T04:38:06.610Z,4.40
2023-05-31T04:43:13.708Z,6.90
2023-05-31T04:48:21.051Z,5.67
2023-05-31T04:53:28.243Z,6.80
2023-05-31T04:58:35.199Z,5.07
2023-05-31T05:03:42.094Z,5.03
2023-05-31T05:08:49.842Z,5.27
2023-05-31T05:13:56.671Z,4.47
2023-05-31T05:19:03.488Z,4.47
2023-05-31T05:24:10.313Z,4.63
2023-05-31T05:29:17.879Z,6.03
2023-05-31T05:34:24.783Z,5.00
2023-05-31T05:39:31.742Z,6.70
2023-05-31T05:44:39.152Z,5.87
2023-05-31T05:49:45.993Z,5.40
2023-05-31T05:54:52.957Z,5.83
2023-05-31T06:00:05.427Z,5.90
2023-05-31T06:05:12.306Z,6.73
2023-05-31T06:10:19.309Z,6.37
2023-05-31T06:15:26.126Z,4.87
2023-05-31T06:20:33.347Z,5.23
2023-05-31T06:25:40.278Z,6.20
2023-05-31T06:30:47.648Z,5.57
2023-05-31T06:35:54.852Z,5.53
2023-05-31T06:41:01.991Z,4.90
2023-05-31T06:46:10.901Z,5.87
2023-05-31T06:51:19.618Z,5.60
2023-05-31T06:56:28.106Z,4.93
2023-05-31T07:01:35.107Z,4.77
2023-05-31T07:06:42.311Z,5.50
2023-05-31T07:11:49.301Z,5.47
2023-05-31T07:16:56.493Z,7.43
2023-05-31T07:22:03.526Z,6.90
2023-05-31T07:27:11.454Z,5.30
2023-05-31T07:32:18.918Z,6.33
2023-05-31T07:37:26.019Z,5.03
2023-05-31T07:42:34.657Z,4.83
2023-05-31T07:47:41.902Z,6.97
2023-05-31T07:52:52.933Z,6.30
2023-05-31T07:58:00.352Z,5.37
2023-05-31T08:03:07.842Z,7.37
2023-05-31T08:08:14.849Z,5.73
2023-05-31T08:13:22.035Z,5.47
2023-05-31T08:18:29.084Z,6.07
2023-05-31T08:23:36.679Z,5.93
2023-05-31T08:28:43.714Z,6.80
2023-05-31T08:34:01.598Z,8.50
2023-05-31T08:39:10.379Z,7.40
2023-05-31T08:44:20.267Z,8.00
2023-05-31T08:49:29.212Z,7.87
2023-05-31T08:54:37.842Z,5.83
2023-05-31T08:59:46.248Z,6.63
2023-05-31T09:04:54.329Z,6.63
2023-05-31T09:10:03.062Z,7.77
2023-05-31T09:15:12.024Z,6.17
2023-05-31T09:20:20.211Z,9.33
2023-05-31T09:25:27.393Z,8.73
2023-05-31T09:30:34.362Z,7.70
2023-05-31T09:35:43.082Z,11.77
2023-05-31T09:40:52.174Z,7.87
2023-05-31T09:45:59.365Z,7.63
2023-05-31T09:51:11.395Z,7.00
2023-05-31T09:56:27.007Z,8.63
2023-05-31T10:01:36.250Z,8.20
2023-05-31T10:06:43.484Z,9.60
2023-05-31T10:11:53.608Z,9.20
2023-05-31T10:17:04.327Z,7.67
2023-05-31T10:22:12.893Z,11.03
2023-05-31T10:27:34.736Z,10.70
2023-05-31T10:32:55.419Z,9.30
2023-05-31T10:38:15.552Z,8.37
2023-05-31T10:43:44.839Z,7.70
2023-05-31T10:49:02.713Z,9.73
2023-05-31T10:54:10.559Z,9.50
2023-05-31T10:59:21.369Z,7.83
2023-05-31T11:04:29.128Z,6.83
2023-05-31T11:09:36.258Z,8.60
2023-05-31T11:14:43.121Z,8.10
2023-05-31T11:19:56.482Z,7.70
2023-05-31T11:25:04.907Z,6.97
2023-05-31T11:30:16.697Z,9.20
2023-05-31T11:35:24.924Z,8.30
2023-05-31T11:40:33.386Z,7.07
2023-05-31T11:45:46.360Z,7.77
2023-05-31T11:50:54.044Z,7.40
2023-05-31T11:56:01.396Z,8.20
2023-05-31T12:01:09.167Z,7.27
2023-05-31T12:06:17.373Z,8.67
2023-05-31T12:11:24.477Z,6.77
2023-05-31T12:16:31.756Z,7.67
2023-05-31T12:21:39.052Z,9.70
2023-05-31T12:26:49.720Z,6.97
2023-05-31T12:32:07.605Z,7.67
2023-05-31T12:37:15.966Z,8.67
2023-05-31T12:42:23.368Z,8.57
2023-05-31T12:47:30.324Z,8.10
2023-05-31T12:52:41.411Z,8.63
2023-05-31T12:57:48.369Z,10.03
2023-05-31T13:02:55.472Z,7.63
2023-05-31T13:08:02.925Z,9.17
2023-05-31T13:13:13.009Z,9.47
2023-05-31T13:18:20.146Z,8.83
2023-05-31T13:23:27.651Z,7.67
2023-05-31T13:28:34.998Z,9.37
2023-05-31T13:33:42.125Z,7.73
2023-05-31T13:38:51.332Z,7.93
2023-05-31T13:43:58.323Z,7.77
2023-05-31T13:49:05.805Z,6.63
2023-05-31T13:54:12.590Z,8.33
2023-05-31T13:59:19.878Z,7.53
2023-05-31T14:04:27.476Z,7.50
2023-05-31T14:09:35.114Z,8.60
2023-05-31T14:14:42.701Z,8.70
2023-05-31T14:19:49.681Z,7.57
2023-05-31T14:24:56.493Z,7.83
2023-05-31T14:30:04.932Z,7.93
2023-05-31T14:35:13.278Z,8.70
2023-05-31T14:40:20.760Z,10.87
2023-05-31T14:45:27.966Z,7.80
2023-05-31T14:50:35.644Z,7.73
2023-05-31T14:55:43.150Z,7.77
2023-05-31T15:00:50.231Z,8.27
2023-05-31T15:05:57.257Z,9.07
2023-05-31T15:11:04.517Z,8.43
2023-05-31T15:16:11.844Z,7.20
2023-05-31T15:21:18.983Z,8.70
2023-05-31T15:26:26.186Z,10.80
2023-05-31T15:31:33.076Z,8.67
2023-05-31T15:36:40.193Z,8.10
2023-05-31T15:41:47.649Z,6.07
2023-05-31T15:46:54.899Z,8.13
2023-05-31T15:52:01.867Z,10.03
2023-05-31T15:57:09.083Z,8.57
2023-05-31T16:02:16.808Z,6.97
2023-05-31T16:07:24.757Z,8.40
2023-05-31T16:12:32.061Z,8.50
2023-05-31T16:17:40.705Z,13.03
2023-05-31T16:22:47.586Z,9.27
2023-05-31T16:27:54.438Z,10.50
2023-05-31T16:33:01.787Z,7.53
2023-05-31T16:38:09.603Z,9.10
2023-05-31T16:43:16.550Z,8.23
2023-05-31T16:48:23.811Z,8.43
2023-05-31T16:53:31.135Z,9.03
2023-05-31T16:58:38.508Z,9.27
2023-05-31T17:03:46.296Z,7.93
2023-05-31T17:08:53.200Z,9.00
2023-05-31T17:14:00.139Z,9.37
2023-05-31T17:19:07.403Z,8.63
2023-05-31T17:24:14.436Z,8.53
2023-05-31T17:29:21.354Z,8.00
2023-05-31T17:34:28.299Z,8.07
2023-05-31T17:39:36.775Z,8.63
2023-05-31T17:44:44.039Z,8.20
2023-05-31T17:49:50.917Z,8.10
2023-05-31T17:54:58.005Z,9.53
2023-05-31T18:00:06.383Z,9.63
2023-05-31T18:05:14.383Z,9.63
2023-05-31T18:10:21.628Z,8.87
2023-05-31T18:15:28.446Z,10.47
2023-05-31T18:20:35.616Z,10.73
2023-05-31T18:25:42.597Z,9.57
2023-05-31T18:30:49.806Z,9.87
2023-05-31T18:35:56.667Z,11.70
2023-05-31T18:41:04.176Z,10.17
2023-05-31T18:46:11.380Z,8.83
2023-05-31T18:51:18.311Z,9.20
2023-05-31T18:56:25.162Z,11.30
2023-05-31T19:01:32.201Z,9.87
2023-05-31T19:06:39.241Z,9.20
2023-05-31T19:11:47.783Z,9.50
2023-05-31T19:16:55.774Z,10.40
2023-05-31T19:22:02.987Z,9.10
2023-05-31T19:27:10.214Z,10.17
2023-05-31T19:32:17.194Z,10.30
2023-05-31T19:37:24.064Z,10.47
2023-05-31T19:42:31.123Z,9.87
2023-05-31T19:47:38.044Z,9.73
2023-05-31T19:52:50.857Z,9.07
2023-05-31T19:57:57.973Z,10.73
2023-05-31T20:03:05.313Z,10.80
2023-05-31T20:08:13.631Z,9.50
2023-05-31T20:13:20.659Z,9.23
2023-05-31T20:18:27.860Z,10.07
2023-05-31T20:23:35.596Z,9.33
2023-05-31T20:28:42.984Z,8.77
2023-05-31T20:33:49.967Z,10.03
2023-05-31T20:38:58.444Z,8.93
2023-05-31T20:44:06.663Z,11.17
2023-05-31T20:49:13.549Z,9.50
2023-05-31T20:54:21.638Z,10.03
2023-05-31T20:59:30.654Z,8.67
2023-05-31T21:04:37.776Z,9.93
2023-05-31T21:09:45.026Z,10.10
2023-05-31T21:14:53.796Z,8.53
2023-05-31T21:20:01.087Z,7.90
2023-05-31T21:25:08.964Z,8.37
2023-05-31T21:30:16.292Z,9.63
2023-05-31T21:35:23.305Z,10.43
2023-05-31T21:40:30.837Z,8.93
2023-05-31T21:45:37.739Z,9.20
2023-05-31T21:50:44.909Z,9.30
2023-05-31T21:55:51.787Z,9.60
2023-05-31T22:00:59.058Z,9.00
2023-05-31T22:06:06.466Z,8.77
2023-05-31T22:11:14.011Z,8.47
2023-05-31T22:16:22.763Z,9.37
2023-05-31T22:21:31.234Z,8.50
2023-05-31T22:26:39.087Z,7.67
2023-05-31T22:31:46.330Z,10.87
2023-05-31T22:36:53.522Z,7.60
2023-05-31T22:42:00.711Z,9.30
2023-05-31T22:47:08.408Z,8.37
2023-05-31T22:52:15.791Z,9.00
2023-05-31T22:57:23.229Z,9.90
2023-05-31T23:02:30.235Z,8.17
2023-05-31T23:07:39.564Z,7.87
2023-05-31T23:12:48.617Z,10.00
2023-05-31T23:17:56.491Z,8.93
2023-05-31T23:23:03.530Z,8.20
2023-05-31T23:28:10.525Z,9.47
2023-05-31T23:33:17.988Z,8.70
2023-05-31T23:38:25.462Z,7.97
2023-05-31T23:43:32.418Z,9.23
2023-05-31T23:48:39.972Z,7.80
2023-05-31T23:53:47.520Z,8.73
2023-05-31T23:58:54.904Z,8.97
